Time;durP1;ratioP1;P1;durP2;ratioP2;P2;SDS_P1;SDS_P2;PMS_P1;PMS_P2;Temp;Humidity;BMP_temperature;BMP_pressure;BME280_temperature;BME280_humidity;BME280_pressure;Samples;Min_cycle;Max_cycle;Signal;HPM_P1;HPM_P2
2022/09/21 00:01:12;;;;;;;;;;;8.30;99.90;;;;;;4890550;29;19926;-74
2022/09/21 00:03:40;;;;;;;;;;;8.30;99.90;;;;;;4891107;29;19911;-74
2022/09/21 00:06:09;;;;;;;;;;;8.30;99.90;;;;;;4891097;29;19918;-75
2022/09/21 00:08:35;;;;;;;;;;;8.30;99.90;;;;;;4890921;29;19939;-75
2022/09/21 00:11:02;;;;;;;;;;;8.30;99.90;;;;;;4890283;29;19911;-74
2022/09/21 00:13:28;;;;;;;;;;;8.30;99.90;;;;;;4891231;29;20217;-75
2022/09/21 00:15:54;;;;;;;;;;;8.30;99.90;;;;;;4890903;29;19912;-77
2022/09/21 00:18:21;;;;;;;;;;;8.30;99.90;;;;;;4890072;29;19934;-74
2022/09/21 00:20:46;;;;;;;;;;;8.30;99.90;;;;;;4890030;29;19916;-74
2022/09/21 00:23:12;;;;;;;;;;;8.30;99.90;;;;;;4891020;29;19978;-74
2022/09/21 00:25:38;;;;;;;;;;;8.30;99.90;;;;;;4890872;29;19912;-76
2022/09/21 00:28:03;;;;;;;;;;;8.30;99.90;;;;;;4890787;29;19979;-75
2022/09/21 00:30:29;;;;;;;;;;;8.30;99.90;;;;;;4890770;29;19951;-75
2022/09/21 00:32:55;;;;;;;;;;;8.30;99.90;;;;;;4890254;29;19911;-75
2022/09/21 00:35:20;;;;;;;;;;;8.30;99.90;;;;;;4890864;29;19919;-74
2022/09/21 00:37:46;;;;;;;;;;;8.30;99.90;;;;;;4890523;29;20192;-74
2022/09/21 00:40:12;;;;;;;;;;;8.30;99.90;;;;;;4891059;29;20155;-73
2022/09/21 00:42:37;;;;;;;;;;;8.40;99.90;;;;;;4890732;29;20106;-74
2022/09/21 00:45:04;;;;;;;;;;;8.40;99.90;;;;;;4890506;29;19919;-74
2022/09/21 00:47:34;;;;;;;;;;;8.30;99.90;;;;;;4873612;29;20229;-74
2022/09/21 00:50:03;;;;;;;;;;;8.40;99.90;;;;;;4889047;29;19912;-75
2022/09/21 00:52:31;;;;;;;;;;;8.40;99.90;;;;;;4873914;29;19912;-74
2022/09/21 00:54:59;;;;;;;;;;;8.40;99.90;;;;;;4889437;29;19911;-75
2022/09/21 00:57:26;;;;;;;;;;;8.40;99.90;;;;;;4889135;29;19983;-74
2022/09/21 00:59:54;;;;;;;;;;;8.40;99.90;;;;;;4873956;29;19923;-74
2022/09/21 01:02:19;;;;;;;;;;;8.40;99.90;;;;;;4908077;29;20141;-75
2022/09/21 01:04:45;;;;;;;;;;;8.40;99.90;;;;;;4906621;29;19982;-74
2022/09/21 01:07:14;;;;;;;;;;;8.40;99.90;;;;;;4907621;29;20147;-76
2022/09/21 01:09:40;;;;;;;;;;;8.40;99.90;;;;;;4907854;29;19911;-74
2022/09/21 01:12:21;;;;;;;;;;;8.40;99.90;;;;;;4907876;29;19955;-74
2022/09/21 01:15:10;;;;;;;;;;;8.30;99.90;;;;;;4907714;29;19955;-75
2022/09/21 01:17:43;;;;;;;;;;;8.40;99.90;;;;;;4907501;29;19911;-75
2022/09/21 01:20:18;;;;;;;;;;;8.40;99.90;;;;;;4906878;29;20229;-75
2022/09/21 01:23:12;;;;;;;;;;;8.30;99.90;;;;;;4908679;29;20095;-74
2022/09/21 01:25:40;;;;;;;;;;;8.30;99.90;;;;;;4908554;29;19919;-75
2022/09/21 01:28:22;;;;;;;;;;;8.30;99.90;;;;;;4906573;29;19911;-75
2022/09/21 01:30:48;;;;;;;;;;;8.30;99.90;;;;;;4907538;29;19912;-75
2022/09/21 01:33:22;;;;;;;;;;;8.30;99.90;;;;;;4907467;29;19915;-75
2022/09/21 01:35:50;;;;;;;;;;;8.30;99.90;;;;;;4906340;29;19990;-75
2022/09/21 01:38:23;;;;;;;;;;;8.30;99.90;;;;;;4907070;29;19911;-75
2022/09/21 01:40:51;;;;;;;;;;;8.30;99.90;;;;;;4907268;29;19915;-74
2022/09/21 01:43:30;;;;;;;;;;;8.30;99.90;;;;;;4907243;29;19954;-75
2022/09/21 01:45:56;;;;;;;;;;;8.20;99.90;;;;;;4906563;29;19915;-75
2022/09/21 01:48:22;;;;;;;;;;;8.10;99.90;;;;;;4907076;29;19930;-74
2022/09/21 01:50:53;;;;;;;;;;;8.10;99.90;;;;;;4890579;29;20206;-74
2022/09/21 01:53:21;;;;;;;;;;;8.10;99.90;;;;;;4907120;29;19936;-75
2022/09/21 01:55:49;;;;;;;;;;;8.00;99.90;;;;;;4907560;29;19934;-75
2022/09/21 01:58:21;;;;;;;;;;;8.00;99.90;;;;;;4906910;29;19912;-74
2022/09/21 02:00:47;;;;;;;;;;;8.00;99.90;;;;;;4908086;29;19946;-75
2022/09/21 02:03:17;;;;;;;;;;;7.90;99.90;;;;;;4905596;29;19927;-75
2022/09/21 02:05:43;;;;;;;;;;;7.90;99.90;;;;;;4906531;29;20106;-74
2022/09/21 02:08:09;;;;;;;;;;;7.90;99.90;;;;;;4906779;29;19943;-74
2022/09/21 02:10:41;;;;;;;;;;;7.90;99.90;;;;;;4906124;29;19911;-76
2022/09/21 02:13:07;;;;;;;;;;;7.90;99.90;;;;;;4906948;29;19911;-75
2022/09/21 02:15:44;;;;;;;;;;;8.00;99.90;;;;;;4907815;29;19951;-74
2022/09/21 02:18:28;;;;;;;;;;;8.00;99.90;;;;;;4890926;29;19911;-74
2022/09/21 02:20:56;;;;;;;;;;;8.00;99.90;;;;;;4907657;29;20226;-74
2022/09/21 02:23:42;;;;;;;;;;;8.10;99.90;;;;;;4906808;29;19958;-74
2022/09/21 02:26:44;;;;;;;;;;;8.10;99.90;;;;;;4906265;29;19919;-74
2022/09/21 02:29:27;;;;;;;;;;;8.10;99.90;;;;;;4897544;29;19911;-73
2022/09/21 02:32:04;;;;;;;;;;;8.10;99.90;;;;;;4906693;29;19915;-74
2022/09/21 02:34:33;;;;;;;;;;;8.10;99.90;;;;;;4905894;29;19956;-76
2022/09/21 02:37:03;;;;;;;;;;;8.00;99.90;;;;;;4906365;29;19919;-73
2022/09/21 02:39:37;;;;;;;;;;;7.90;99.90;;;;;;4907595;29;19982;-74
2022/09/21 02:42:09;;;;;;;;;;;7.90;99.90;;;;;;4906668;29;20186;-74
2022/09/21 02:44:40;;;;;;;;;;;7.80;99.90;;;;;;4906433;29;19954;-74
2022/09/21 02:47:24;;;;;;;;;;;7.80;99.90;;;;;;4934235;23;19924;-75
2022/09/21 02:49:55;;;;;;;;;;;7.90;99.90;;;;;;4924041;29;20107;-74
2022/09/21 02:52:21;;;;;;;;;;;8.00;99.90;;;;;;4912369;29;20014;-74
2022/09/21 02:54:49;;;;;;;;;;;8.00;99.90;;;;;;4906713;29;19912;-74
2022/09/21 02:57:16;;;;;;;;;;;8.00;99.90;;;;;;4906226;29;20110;-74
2022/09/21 02:59:41;;;;;;;;;;;8.00;99.90;;;;;;4903374;29;19916;-74
2022/09/21 03:02:08;;;;;;;;;;;8.00;99.90;;;;;;4873406;29;19978;-74
2022/09/21 03:04:34;;;;;;;;;;;7.90;99.90;;;;;;4873757;29;19911;-74
2022/09/21 03:07:00;;;;;;;;;;;8.00;99.90;;;;;;4890005;29;19912;-73
2022/09/21 03:09:25;;;;;;;;;;;8.00;99.90;;;;;;4889185;29;20151;-74
2022/09/21 03:11:51;;;;;;;;;;;8.00;99.90;;;;;;4887681;29;19934;-75
2022/09/21 03:14:18;;;;;;;;;;;8.00;99.90;;;;;;4890299;29;19934;-74
2022/09/21 03:16:43;;;;;;;;;;;8.10;99.90;;;;;;4891752;29;20110;-75
2022/09/21 03:19:10;;;;;;;;;;;8.10;99.90;;;;;;4892177;29;19912;-74
2022/09/21 03:21:36;;;;;;;;;;;8.20;99.90;;;;;;4891208;29;19943;-74
2022/09/21 03:24:02;;;;;;;;;;;8.20;99.90;;;;;;4892123;29;19919;-74
2022/09/21 03:26:28;;;;;;;;;;;8.10;99.90;;;;;;4890686;29;20095;-74
2022/09/21 03:28:54;;;;;;;;;;;8.10;99.90;;;;;;4904510;29;20213;-74
2022/09/21 03:31:20;;;;;;;;;;;8.10;99.90;;;;;;4910636;29;19911;-75
2022/09/21 03:33:45;;;;;;;;;;;8.10;99.90;;;;;;4910642;29;19954;-75
2022/09/21 03:36:11;;;;;;;;;;;8.20;99.90;;;;;;4910337;29;19911;-74
2022/09/21 03:38:37;;;;;;;;;;;8.10;99.90;;;;;;4908964;29;19917;-74
2022/09/21 03:41:03;;;;;;;;;;;8.10;99.90;;;;;;4909479;29;19923;-74
2022/09/21 03:43:29;;;;;;;;;;;8.10;99.90;;;;;;4909549;29;19934;-74
2022/09/21 03:45:55;;;;;;;;;;;8.10;99.90;;;;;;4909901;29;20229;-74
2022/09/21 03:48:21;;;;;;;;;;;8.00;99.90;;;;;;4910204;29;19918;-74
2022/09/21 03:50:46;;;;;;;;;;;8.00;99.90;;;;;;4909394;29;20224;-75
2022/09/21 03:53:12;;;;;;;;;;;7.90;99.90;;;;;;4909378;29;19912;-75
2022/09/21 03:55:38;;;;;;;;;;;7.90;99.90;;;;;;4909237;29;19912;-76
2022/09/21 03:58:04;;;;;;;;;;;7.80;99.90;;;;;;4909874;29;19926;-75
2022/09/21 04:00:30;;;;;;;;;;;7.70;99.90;;;;;;4908594;29;19946;-75
2022/09/21 04:02:55;;;;;;;;;;;7.70;99.90;;;;;;4910045;29;19915;-75
2022/09/21 04:05:21;;;;;;;;;;;7.70;99.90;;;;;;4909121;29;19912;-75
2022/09/21 04:07:47;;;;;;;;;;;7.70;99.90;;;;;;4909087;29;20114;-75
2022/09/21 04:10:14;;;;;;;;;;;7.70;99.90;;;;;;4910287;29;19911;-76
2022/09/21 04:12:43;;;;;;;;;;;7.60;99.90;;;;;;4909231;29;19934;-75
2022/09/21 04:15:14;;;;;;;;;;;7.60;99.90;;;;;;4909871;29;19983;-75
2022/09/21 04:17:40;;;;;;;;;;;7.60;99.90;;;;;;4892948;29;19917;-75
2022/09/21 04:20:07;;;;;;;;;;;7.60;99.90;;;;;;4909334;29;19915;-75
2022/09/21 04:22:34;;;;;;;;;;;7.70;99.90;;;;;;4893402;29;19912;-76
2022/09/21 04:25:00;;;;;;;;;;;7.70;99.90;;;;;;4909501;29;20265;-74
2022/09/21 04:27:26;;;;;;;;;;;7.70;99.90;;;;;;4909298;29;19952;-74
2022/09/21 04:29:51;;;;;;;;;;;7.70;99.90;;;;;;4909770;29;19915;-75
2022/09/21 04:32:17;;;;;;;;;;;7.70;99.90;;;;;;4892830;29;19912;-75
2022/09/21 04:34:43;;;;;;;;;;;7.70;99.90;;;;;;4909639;29;19912;-74
2022/09/21 04:37:11;;;;;;;;;;;7.60;99.90;;;;;;4909334;29;19967;-74
2022/09/21 04:39:37;;;;;;;;;;;7.70;99.90;;;;;;4908575;29;19915;-74
2022/09/21 04:42:03;;;;;;;;;;;7.70;99.90;;;;;;4908488;29;19911;-74
2022/09/21 04:44:29;;;;;;;;;;;7.60;99.90;;;;;;4892739;29;19912;-74
2022/09/21 04:46:56;;;;;;;;;;;7.60;99.90;;;;;;4908956;29;19922;-75
2022/09/21 04:49:21;;;;;;;;;;;7.60;99.90;;;;;;4909490;29;19927;-75
2022/09/21 04:51:47;;;;;;;;;;;7.60;99.90;;;;;;4909410;29;19911;-74
2022/09/21 04:54:13;;;;;;;;;;;7.60;99.90;;;;;;4907955;29;19911;-75
2022/09/21 04:56:38;;;;;;;;;;;7.50;99.90;;;;;;4908888;29;19918;-75
2022/09/21 04:59:04;;;;;;;;;;;7.40;99.90;;;;;;4909232;29;20146;-74
2022/09/21 05:01:29;;;;;;;;;;;7.30;99.90;;;;;;4908219;29;19924;-74
2022/09/21 05:04:00;;;;;;;;;;;7.20;99.90;;;;;;4909081;29;19911;-75
2022/09/21 05:06:29;;;;;;;;;;;7.10;99.90;;;;;;4908694;29;19974;-75
2022/09/21 05:11:39;;;;;;;;;;;6.90;99.90;;;;;;4908202;29;19991;-74
2022/09/21 05:14:06;;;;;;;;;;;6.90;99.90;;;;;;4908847;29;19912;-75
2022/09/21 05:16:31;;;;;;;;;;;6.90;99.90;;;;;;4897205;29;19995;-74
2022/09/21 05:18:57;;;;;;;;;;;6.90;99.90;;;;;;4900009;29;19916;-75
2022/09/21 05:21:23;;;;;;;;;;;6.90;99.90;;;;;;4907594;29;20159;-76
2022/09/21 05:23:48;;;;;;;;;;;6.80;99.90;;;;;;4901899;29;19926;-75
2022/09/21 05:26:14;;;;;;;;;;;6.80;99.90;;;;;;4898823;29;20202;-75
2022/09/21 05:28:40;;;;;;;;;;;6.70;99.90;;;;;;4897893;29;20113;-75
2022/09/21 05:31:27;;;;;;;;;;;6.70;99.90;;;;;;4889826;29;19911;-74
2022/09/21 05:33:55;;;;;;;;;;;6.70;99.90;;;;;;4887604;29;19999;-74
2022/09/21 05:36:36;;;;;;;;;;;6.60;99.90;;;;;;4887926;29;19916;-74
2022/09/21 05:39:02;;;;;;;;;;;6.60;99.90;;;;;;4889056;29;20110;-74
2022/09/21 05:41:28;;;;;;;;;;;6.60;99.90;;;;;;4902654;29;20113;-74
2022/09/21 05:43:54;;;;;;;;;;;6.60;99.90;;;;;;4908373;29;19912;-74
2022/09/21 05:46:32;;;;;;;;;;;6.60;99.90;;;;;;4907760;29;19922;-74
2022/09/21 05:48:59;;;;;;;;;;;6.60;99.90;;;;;;4891815;29;20117;-73
2022/09/21 05:51:46;;;;;;;;;;;6.70;99.90;;;;;;4907541;29;19918;-74
2022/09/21 05:54:44;;;;;;;;;;;6.80;99.90;;;;;;4908163;29;19912;-74
2022/09/21 05:57:21;;;;;;;;;;;6.80;99.90;;;;;;4873960;29;20141;-74
2022/09/21 06:00:08;;;;;;;;;;;6.80;99.90;;;;;;4907032;29;20225;-74
2022/09/21 06:03:04;;;;;;;;;;;6.70;99.90;;;;;;4908080;29;20118;-73
2022/09/21 06:05:29;;;;;;;;;;;6.70;99.90;;;;;;4906961;29;19912;-73
2022/09/21 06:07:55;;;;;;;;;;;6.70;99.90;;;;;;4907683;29;20206;-74
2022/09/21 06:10:20;;;;;;;;;;;6.80;99.90;;;;;;4907480;29;20106;-74
2022/09/21 06:12:46;;;;;;;;;;;6.70;99.90;;;;;;4907031;29;20122;-74
2022/09/21 06:15:13;;;;;;;;;;;6.80;99.90;;;;;;4908048;29;19911;-74
2022/09/21 06:17:39;;;;;;;;;;;6.80;99.90;;;;;;4907885;29;19923;-74
2022/09/21 06:20:06;;;;;;;;;;;6.90;99.90;;;;;;4908043;29;20209;-73
2022/09/21 06:22:32;;;;;;;;;;;6.90;99.90;;;;;;4906816;29;19912;-73
2022/09/21 06:24:58;;;;;;;;;;;7.00;99.90;;;;;;4907883;29;19936;-73
2022/09/21 06:27:23;;;;;;;;;;;7.00;99.90;;;;;;4907524;29;19912;-73
2022/09/21 06:29:49;;;;;;;;;;;7.00;99.90;;;;;;4906785;29;19912;-73
2022/09/21 06:32:15;;;;;;;;;;;6.90;99.90;;;;;;4907651;29;19911;-73
2022/09/21 06:34:41;;;;;;;;;;;6.90;99.90;;;;;;4907703;29;19912;-73
2022/09/21 06:37:08;;;;;;;;;;;7.00;99.90;;;;;;4907538;29;20265;-73
2022/09/21 06:39:33;;;;;;;;;;;7.00;99.90;;;;;;4907709;29;19942;-73
2022/09/21 06:41:59;;;;;;;;;;;7.20;99.90;;;;;;4906880;29;19911;-73
2022/09/21 06:44:25;;;;;;;;;;;7.10;99.90;;;;;;4907790;29;20151;-73
2022/09/21 06:46:51;;;;;;;;;;;7.10;99.90;;;;;;4906224;29;19930;-73
2022/09/21 06:49:16;;;;;;;;;;;7.20;99.90;;;;;;4908426;29;19911;-73
2022/09/21 06:51:42;;;;;;;;;;;7.20;99.90;;;;;;4911532;29;19911;-73
2022/09/21 06:54:08;;;;;;;;;;;7.20;99.90;;;;;;4910285;29;20139;-74
2022/09/21 06:56:34;;;;;;;;;;;7.20;99.90;;;;;;4909626;29;19911;-75
2022/09/21 06:59:00;;;;;;;;;;;7.20;99.90;;;;;;4893968;29;19986;-74
2022/09/21 07:01:26;;;;;;;;;;;7.20;99.90;;;;;;4911409;29;19922;-76
2022/09/21 07:03:51;;;;;;;;;;;7.30;99.90;;;;;;4910725;29;20155;-74
2022/09/21 07:06:17;;;;;;;;;;;7.30;99.90;;;;;;4910484;29;19919;-74
2022/09/21 07:08:43;;;;;;;;;;;7.40;99.90;;;;;;4909612;29;20162;-75
2022/09/21 07:11:09;;;;;;;;;;;7.40;99.90;;;;;;4909757;29;19954;-75
2022/09/21 07:13:35;;;;;;;;;;;7.50;99.90;;;;;;4910221;29;19911;-75
2022/09/21 07:16:08;;;;;;;;;;;7.60;99.90;;;;;;4910323;29;19926;-75
2022/09/21 07:18:34;;;;;;;;;;;7.60;99.90;;;;;;4894045;29;19978;-75
2022/09/21 07:21:03;;;;;;;;;;;7.60;99.90;;;;;;4909860;29;19921;-75
2022/09/21 07:23:31;;;;;;;;;;;7.60;99.90;;;;;;4909715;29;20442;-75
2022/09/21 07:26:00;;;;;;;;;;;7.50;99.90;;;;;;4910785;29;20151;-75
2022/09/21 07:28:26;;;;;;;;;;;7.50;99.90;;;;;;4908896;29;20206;-75
2022/09/21 07:30:51;;;;;;;;;;;7.50;99.90;;;;;;4910860;29;19983;-75
2022/09/21 07:33:17;;;;;;;;;;;7.50;99.90;;;;;;4909862;29;19919;-75
2022/09/21 07:35:52;;;;;;;;;;;7.50;99.90;;;;;;4909600;29;19961;-75
2022/09/21 07:38:18;;;;;;;;;;;7.40;99.90;;;;;;4908699;29;19911;-75
2022/09/21 07:40:44;;;;;;;;;;;7.40;99.90;;;;;;4909589;29;19991;-75
2022/09/21 07:43:10;;;;;;;;;;;7.50;99.90;;;;;;4909581;29;19911;-75
2022/09/21 07:45:35;;;;;;;;;;;7.50;99.90;;;;;;4905490;29;19964;-75
2022/09/21 07:48:02;;;;;;;;;;;7.50;99.90;;;;;;4890608;29;19919;-73
2022/09/21 07:50:28;;;;;;;;;;;7.50;99.90;;;;;;4900766;29;19962;-75
2022/09/21 07:52:54;;;;;;;;;;;7.50;99.90;;;;;;4891355;29;19911;-75
2022/09/21 07:55:19;;;;;;;;;;;7.60;99.90;;;;;;4891639;29;19918;-75
2022/09/21 08:00:33;;;;;;;;;;;7.60;99.90;;;;;;4887382;29;19995;-75
2022/09/21 08:03:00;;;;;;;;;;;7.60;99.90;;;;;;4894068;29;19911;-73
2022/09/21 08:05:26;;;;;;;;;;;7.70;99.90;;;;;;4909212;29;19982;-73
2022/09/21 08:07:55;;;;;;;;;;;7.90;99.90;;;;;;4910045;29;19918;-74
2022/09/21 08:10:21;;;;;;;;;;;8.00;99.90;;;;;;4905219;29;19911;-75
2022/09/21 08:12:46;;;;;;;;;;;8.10;99.90;;;;;;4890685;29;19919;-74
2022/09/21 08:15:13;;;;;;;;;;;8.20;99.90;;;;;;4891267;29;19912;-74
2022/09/21 08:17:39;;;;;;;;;;;8.30;99.90;;;;;;4894553;29;19966;-74
2022/09/21 08:20:05;;;;;;;;;;;8.40;99.90;;;;;;4894009;29;19920;-74
2022/09/21 08:22:31;;;;;;;;;;;8.50;99.90;;;;;;4909661;29;19985;-74
2022/09/21 08:24:56;;;;;;;;;;;8.50;99.90;;;;;;4905159;29;19911;-74
2022/09/21 08:27:24;;;;;;;;;;;8.50;99.90;;;;;;4890706;29;19951;-74
2022/09/21 08:29:50;;;;;;;;;;;8.70;99.90;;;;;;4895637;29;19918;-74
2022/09/21 08:32:15;;;;;;;;;;;8.70;99.90;;;;;;4908757;29;19911;-74
2022/09/21 08:34:41;;;;;;;;;;;8.80;99.90;;;;;;4908093;29;19919;-74
2022/09/21 08:37:07;;;;;;;;;;;8.90;99.90;;;;;;4909031;29;20234;-75
2022/09/21 08:39:33;;;;;;;;;;;9.00;99.90;;;;;;4892398;29;19994;-74
2022/09/21 08:42:01;;;;;;;;;;;9.10;99.90;;;;;;4909391;29;19959;-74
2022/09/21 08:45:00;;;;;;;;;;;9.20;99.90;;;;;;4908140;29;19919;-75
2022/09/21 08:47:45;;;;;;;;;;;9.30;99.90;;;;;;4924641;23;19951;-72
2022/09/21 08:50:24;;;;;;;;;;;9.40;99.90;;;;;;4898162;29;19978;-72
2022/09/21 08:52:49;;;;;;;;;;;9.50;99.90;;;;;;4908067;29;20207;-72
2022/09/21 08:55:16;;;;;;;;;;;9.50;99.90;;;;;;4908112;29;20024;-72
2022/09/21 08:57:42;;;;;;;;;;;9.60;99.90;;;;;;4892524;29;19947;-72
2022/09/21 09:00:16;;;;;;;;;;;9.70;99.90;;;;;;4890417;29;19923;-72
2022/09/21 09:03:15;;;;;;;;;;;9.70;99.90;;;;;;4874411;29;19919;-72
2022/09/21 09:06:08;;;;;;;;;;;9.70;99.90;;;;;;4888259;29;19935;-71
2022/09/21 09:08:54;;;;;;;;;;;9.60;99.90;;;;;;4889208;29;20028;-72
2022/09/21 09:12:09;;;;;;;;;;;9.70;99.90;;;;;;4888883;29;19979;-71
2022/09/21 09:15:03;;;;;;;;;;;9.80;99.90;;;;;;4862980;29;19935;-71
2022/09/21 09:17:55;;;;;;;;;;;9.90;99.90;;;;;;4889787;29;19912;-72
2022/09/21 09:20:23;;;;;;;;;;;10.00;99.90;;;;;;4888884;29;19916;-72
2022/09/21 09:23:06;;;;;;;;;;;10.00;99.90;;;;;;4888762;29;20188;-72
2022/09/21 09:25:40;;;;;;;;;;;10.00;99.90;;;;;;4888959;29;20169;-72
2022/09/21 09:28:31;;;;;;;;;;;10.10;99.90;;;;;;4888677;29;20203;-72
2022/09/21 09:31:15;;;;;;;;;;;10.20;99.90;;;;;;4889007;29;19912;-72
2022/09/21 09:33:49;;;;;;;;;;;10.20;99.90;;;;;;4873133;29;19964;-72
2022/09/21 09:36:15;;;;;;;;;;;10.30;99.90;;;;;;4889327;29;19918;-72
2022/09/21 09:38:44;;;;;;;;;;;10.20;99.90;;;;;;4888666;29;20202;-72
2022/09/21 09:41:33;;;;;;;;;;;10.20;99.90;;;;;;4887957;29;19916;-72
2022/09/21 09:44:06;;;;;;;;;;;10.30;99.90;;;;;;4888706;29;19911;-72
2022/09/21 09:46:49;;;;;;;;;;;10.30;99.90;;;;;;4888111;29;19922;-72
2022/09/21 09:49:15;;;;;;;;;;;10.30;99.90;;;;;;4884659;29;19953;-72
2022/09/21 09:51:41;;;;;;;;;;;10.40;99.90;;;;;;4871480;29;19916;-72
2022/09/21 09:54:13;;;;;;;;;;;10.40;99.90;;;;;;4870076;29;19916;-72
2022/09/21 09:56:38;;;;;;;;;;;10.40;99.90;;;;;;4854350;29;20008;-72
2022/09/21 09:59:07;;;;;;;;;;;10.50;99.90;;;;;;4873651;29;19920;-72
2022/09/21 10:01:37;;;;;;;;;;;10.60;99.90;;;;;;4888260;29;19916;-72
2022/09/21 10:04:10;;;;;;;;;;;10.70;99.90;;;;;;4888365;29;20126;-72
2022/09/21 10:06:36;;;;;;;;;;;10.80;99.90;;;;;;4887874;29;20012;-73
2022/09/21 10:09:22;;;;;;;;;;;10.90;99.90;;;;;;4872461;29;19911;-72
2022/09/21 10:11:48;;;;;;;;;;;11.10;99.90;;;;;;4873414;29;19954;-72
2022/09/21 10:14:17;;;;;;;;;;;11.30;99.90;;;;;;4887617;29;19912;-70
2022/09/21 10:16:43;;;;;;;;;;;11.40;99.90;;;;;;4887850;29;19919;-66
2022/09/21 10:19:17;;;;;;;;;;;11.50;99.90;;;;;;4872565;29;19912;-67
2022/09/21 10:21:44;;;;;;;;;;;11.50;99.90;;;;;;4884487;29;19996;-67
2022/09/21 10:24:14;;;;;;;;;;;11.60;99.90;;;;;;4868644;29;20171;-67
2022/09/21 10:27:01;;;;;;;;;;;11.70;99.90;;;;;;4870178;29;19918;-67
2022/09/21 10:29:44;;;;;;;;;;;11.90;99.90;;;;;;4873433;29;19961;-67
2022/09/21 10:32:13;;;;;;;;;;;12.10;99.90;;;;;;4887865;29;19919;-67
2022/09/21 10:34:40;;;;;;;;;;;12.20;99.90;;;;;;4888153;29;19912;-66
2022/09/21 10:37:40;;;;;;;;;;;12.50;99.90;;;;;;4888863;29;19912;-67
2022/09/21 10:40:17;;;;;;;;;;;12.80;99.90;;;;;;4887769;29;20339;-67
2022/09/21 10:42:43;;;;;;;;;;;13.20;99.90;;;;;;4888899;29;19911;-67
2022/09/21 10:45:19;;;;;;;;;;;13.60;99.90;;;;;;4888888;29;19934;-68
2022/09/21 10:48:15;;;;;;;;;;;13.80;99.90;;;;;;4886890;29;19923;-68
2022/09/21 10:50:45;;;;;;;;;;;14.10;99.90;;;;;;4887869;29;19984;-68
2022/09/21 10:53:19;;;;;;;;;;;14.50;99.90;;;;;;4886988;29;20114;-67
2022/09/21 10:56:07;;;;;;;;;;;14.70;99.90;;;;;;4888866;29;20118;-68
2022/09/21 10:58:33;;;;;;;;;;;15.00;99.90;;;;;;4884098;29;19916;-67
2022/09/21 11:01:19;;;;;;;;;;;15.30;99.90;;;;;;4869178;29;20210;-68
2022/09/21 11:03:54;;;;;;;;;;;15.60;99.90;;;;;;4883889;29;19911;-68
2022/09/21 11:06:30;;;;;;;;;;;15.80;99.90;;;;;;4888509;29;19947;-68
2022/09/21 11:09:11;;;;;;;;;;;16.10;99.90;;;;;;4883668;29;19983;-68
2022/09/21 11:11:55;;;;;;;;;;;16.30;99.90;;;;;;4870153;29;20087;-67
2022/09/21 11:14:38;;;;;;;;;;;16.60;99.90;;;;;;4879524;29;20106;-67
2022/09/21 11:17:18;;;;;;;;;;;16.80;99.90;;;;;;4887442;29;19934;-67
2022/09/21 11:19:46;;;;;;;;;;;17.10;99.90;;;;;;4889208;29;19956;-68
2022/09/21 11:22:33;;;;;;;;;;;17.50;99.90;;;;;;4888412;29;19950;-68
2022/09/21 11:25:30;;;;;;;;;;;17.80;99.90;;;;;;4888122;29;20096;-67
2022/09/21 11:28:12;;;;;;;;;;;18.10;99.90;;;;;;4887381;29;20210;-69
2022/09/21 11:31:24;;;;;;;;;;;18.40;99.90;;;;;;4887670;29;19912;-68
2022/09/21 11:34:08;;;;;;;;;;;18.80;99.90;;;;;;4887548;29;19919;-68
2022/09/21 11:36:37;;;;;;;;;;;19.20;99.90;;;;;;4890926;29;20225;-68
2022/09/21 11:39:11;;;;;;;;;;;19.50;99.90;;;;;;4891800;29;19912;-68
2022/09/21 11:41:48;;;;;;;;;;;19.80;99.90;;;;;;4891129;29;19916;-68
2022/09/21 11:44:48;;;;;;;;;;;20.20;99.90;;;;;;4891927;29;19912;-68
2022/09/21 11:47:32;;;;;;;;;;;20.60;99.90;;;;;;4890604;29;19983;-69
2022/09/21 11:50:30;;;;;;;;;;;21.00;99.90;;;;;;4891259;29;19931;-68
2022/09/21 11:53:10;;;;;;;;;;;21.30;99.90;;;;;;4880204;29;19915;-69
2022/09/21 11:55:58;;;;;;;;;;;21.70;99.90;;;;;;4886785;29;19916;-68
2022/09/21 11:58:32;;;;;;;;;;;21.90;99.90;;;;;;4871767;29;20284;-68
2022/09/21 12:01:26;;;;;;;;;;;22.20;92.00;;;;;;4877903;29;19916;-68
2022/09/21 12:04:10;;;;;;;;;;;22.30;95.80;;;;;;4873669;29;20111;-68
2022/09/21 12:06:54;;;;;;;;;;;22.60;94.40;;;;;;4884350;29;19912;-70
2022/09/21 12:09:42;;;;;;;;;;;23.10;95.70;;;;;;4890342;29;20039;-72
2022/09/21 12:12:17;;;;;;;;;;;23.50;90.30;;;;;;4890597;29;19912;-71
2022/09/21 12:15:08;;;;;;;;;;;23.90;83.50;;;;;;4891341;29;19915;-70
2022/09/21 12:17:51;;;;;;;;;;;24.20;79.10;;;;;;4889955;29;19936;-71
2022/09/21 12:20:39;;;;;;;;;;;24.50;79.70;;;;;;4890824;29;19981;-70
2022/09/21 12:23:09;;;;;;;;;;;24.90;75.20;;;;;;4891172;29;19912;-72
2022/09/21 12:25:40;;;;;;;;;;;25.20;66.00;;;;;;4889561;29;19911;-71
2022/09/21 12:28:28;;;;;;;;;;;25.50;70.40;;;;;;4889605;29;19986;-70
2022/09/21 12:31:14;;;;;;;;;;;25.80;71.20;;;;;;4890895;29;19918;-71
2022/09/21 12:34:02;;;;;;;;;;;26.10;70.00;;;;;;4889891;29;19922;-71
2022/09/21 12:36:40;;;;;;;;;;;26.20;65.70;;;;;;4888834;29;19943;-71
2022/09/21 12:39:19;;;;;;;;;;;26.60;59.80;;;;;;4889898;29;19919;-71
2022/09/21 12:42:21;;;;;;;;;;;27.00;59.40;;;;;;4891159;29;19915;-71
2022/09/21 12:44:51;;;;;;;;;;;27.50;58.10;;;;;;4889838;29;19912;-71
2022/09/21 12:47:47;;;;;;;;;;;28.00;58.30;;;;;;4885009;29;19983;-71
2022/09/21 12:50:26;;;;;;;;;;;28.50;52.10;;;;;;4872713;29;19912;-71
2022/09/21 12:52:52;;;;;;;;;;;28.50;52.90;;;;;;4889666;29;19919;-70
2022/09/21 12:55:44;;;;;;;;;;;28.60;50.80;;;;;;4889280;29;19986;-69
2022/09/21 12:58:25;;;;;;;;;;;28.80;49.30;;;;;;4889038;29;20110;-71
2022/09/21 13:01:17;;;;;;;;;;;29.30;50.00;;;;;;4885047;29;19941;-68
2022/09/21 13:04:02;;;;;;;;;;;29.80;47.90;;;;;;4870725;29;19951;-69
2022/09/21 13:06:46;;;;;;;;;;;29.50;44.60;;;;;;4868439;29;19913;-69
2022/09/21 13:09:13;;;;;;;;;;;29.30;46.50;;;;;;4871396;29;19919;-68
2022/09/21 13:11:53;;;;;;;;;;;29.50;47.20;;;;;;4886064;29;19912;-68
2022/09/21 13:14:18;;;;;;;;;;;29.10;44.30;;;;;;4870182;29;19912;-68
2022/09/21 13:16:44;;;;;;;;;;;27.90;44.50;;;;;;4871238;29;19919;-70
2022/09/21 13:19:13;;;;;;;;;;;27.70;49.90;;;;;;4870319;29;19944;-70
2022/09/21 13:21:38;;;;;;;;;;;28.40;43.00;;;;;;4881791;29;20211;-72
2022/09/21 13:24:05;;;;;;;;;;;28.90;40.60;;;;;;4889976;29;19920;-70
2022/09/21 13:26:49;;;;;;;;;;;29.50;39.00;;;;;;4884513;29;19912;-72
2022/09/21 13:29:18;;;;;;;;;;;29.60;39.70;;;;;;4870264;29;19916;-70
2022/09/21 13:32:03;;;;;;;;;;;30.60;40.40;;;;;;4872981;29;20111;-69
2022/09/21 13:34:38;;;;;;;;;;;31.50;38.60;;;;;;4888938;29;19982;-71
2022/09/21 13:37:10;;;;;;;;;;;32.40;38.70;;;;;;4889425;29;20110;-69
2022/09/21 13:39:56;;;;;;;;;;;33.50;35.70;;;;;;4889060;29;19930;-68
2022/09/21 13:42:28;;;;;;;;;;;34.20;34.70;;;;;;4892328;29;19919;-71
2022/09/21 13:44:54;;;;;;;;;;;35.00;32.10;;;;;;4890500;29;19947;-69
2022/09/21 13:47:30;;;;;;;;;;;35.00;31.50;;;;;;4884167;29;20254;-68
2022/09/21 13:49:56;;;;;;;;;;;35.60;28.60;;;;;;4870978;29;19948;-69
2022/09/21 13:52:28;;;;;;;;;;;35.30;29.50;;;;;;4879661;29;19919;-69
2022/09/21 13:54:59;;;;;;;;;;;35.30;29.50;;;;;;4888477;29;19912;-69
2022/09/21 13:57:45;;;;;;;;;;;34.10;29.40;;;;;;4884268;29;19947;-69
2022/09/21 14:00:11;;;;;;;;;;;32.90;31.60;;;;;;4869385;29;19922;-69
2022/09/21 14:02:49;;;;;;;;;;;33.10;33.10;;;;;;4870850;29;19951;-69
2022/09/21 14:05:22;;;;;;;;;;;33.40;31.90;;;;;;4870796;29;19912;-69
2022/09/21 14:08:04;;;;;;;;;;;34.40;31.40;;;;;;4869554;29;20279;-69
2022/09/21 14:10:31;;;;;;;;;;;34.90;30.10;;;;;;4869714;29;19912;-69
2022/09/21 14:12:57;;;;;;;;;;;35.60;29.70;;;;;;4869304;29;19916;-69
2022/09/21 14:15:22;;;;;;;;;;;36.10;28.90;;;;;;4869559;29;19920;-69
2022/09/21 14:18:11;;;;;;;;;;;36.10;29.80;;;;;;4870305;29;20159;-67
2022/09/21 14:20:36;;;;;;;;;;;34.50;30.20;;;;;;4870539;29;19916;-66
2022/09/21 14:23:15;;;;;;;;;;;32.00;33.00;;;;;;4869412;29;20202;-68
2022/09/21 14:25:52;;;;;;;;;;;29.90;36.50;;;;;;4869319;29;19912;-69
2022/09/21 14:28:46;;;;;;;;;;;27.80;40.00;;;;;;4868862;29;19935;-70
2022/09/21 14:31:27;;;;;;;;;;;25.90;45.20;;;;;;4869333;29;19912;-70
2022/09/21 14:33:54;;;;;;;;;;;24.30;51.80;;;;;;4869308;29;19912;-68
2022/09/21 14:36:22;;;;;;;;;;;23.20;54.30;;;;;;4874602;29;19921;-67
2022/09/21 14:38:59;;;;;;;;;;;22.20;62.80;;;;;;4867423;29;19947;-69
2022/09/21 14:41:30;;;;;;;;;;;21.50;68.50;;;;;;4883660;29;19917;-67
2022/09/21 14:43:56;;;;;;;;;;;20.90;72.50;;;;;;4869106;29;19982;-68
2022/09/21 14:46:34;;;;;;;;;;;20.30;78.80;;;;;;4869745;29;19916;-70
2022/09/21 14:49:18;;;;;;;;;;;19.90;82.60;;;;;;4874346;29;20194;-69
2022/09/21 14:52:16;;;;;;;;;;;19.50;87.20;;;;;;4887368;29;19919;-68
2022/09/21 14:55:17;;;;;;;;;;;19.10;90.90;;;;;;4891738;29;20150;-68
2022/09/21 14:58:01;;;;;;;;;;;18.90;92.00;;;;;;4881181;29;20126;-70
2022/09/21 15:00:38;;;;;;;;;;;18.70;92.20;;;;;;4870133;29;19923;-71
2022/09/21 15:03:37;;;;;;;;;;;18.40;94.50;;;;;;4868932;29;19912;-71